PAJN/JNU METAR and TAF weather

Enter ICAO airport designator
Station Type Date Time Source
PAJN METAR 2021/03/09 09:53 UTC NOAA

PAJN 090953Z 00000KT 10SM CLR M06/M09 A3021 RMK AO2 SLP228 T10561089


Station Type Date Time Source
PAJN Decoded METAR 2021/03/09 09:53 UTC NOAA

JUNEAU INTERNATIONAL AIRPORT, AK, United States (PAJN) 58-21N 134-34W 8M
Mar 09, 2021 - 04:53 AM EST / 2021.03.09 0953 UTC
Wind: Calm:0
Visibility: 10 mile(s):0
Sky conditions: clear
Temperature: 21.9 F (-5.6 C)
Dew Point: 16.0 F (-8.9 C)
Relative Humidity: 77%
Pressure (altimeter): 30.21 in. Hg (1023 hPa)
ob: PAJN 090953Z 00000KT 10SM CLR M06/M09 A3021 RMK AO2 SLP228 T10561089
cycle: 10

Station Type Date Time Source
PAJN TAF 2021/03/09 06:27 UTC NOAA

TAF PAJN 090524Z 0906/1006 10007KT P6SM FEW150

Example: see airport list